Time;durP1;ratioP1;P1;durP2;ratioP2;P2;SDS_P1;SDS_P2;PMS_P1;PMS_P2;Temp;Humidity;BMP_temperature;BMP_pressure;BME280_temperature;BME280_humidity;BME280_pressure;Samples;Min_cycle;Max_cycle;Signal;HPM_P1;HPM_P2
2024/01/18 00:01:35;;;;;;;1.30;1.30;;;16.00;65.60;;;;;;4990319;28;43501;-72
2024/01/18 00:04:03;;;;;;;1.50;1.50;;;16.00;65.60;;;;;;4988567;28;43398;-72
2024/01/18 00:06:32;;;;;;;1.53;1.53;;;15.90;65.50;;;;;;4990081;28;43489;-72
2024/01/18 00:09:02;;;;;;;1.40;1.40;;;15.90;65.60;;;;;;4988956;28;44095;-72
2024/01/18 00:11:30;;;;;;;1.33;1.33;;;15.90;65.70;;;;;;4983497;28;43521;-72
2024/01/18 00:13:58;;;;;;;1.30;1.30;;;15.90;65.60;;;;;;4988119;28;43477;-74
2024/01/18 00:16:26;;;;;;;1.40;1.40;;;15.90;65.70;;;;;;4989971;28;43579;-74
2024/01/18 00:18:55;;;;;;;1.30;1.30;;;15.90;65.80;;;;;;4985394;28;43612;-73
2024/01/18 00:21:24;;;;;;;1.50;1.50;;;15.90;65.80;;;;;;4996402;28;43529;-76
2024/01/18 00:23:52;;;;;;;1.63;1.63;;;15.90;65.90;;;;;;4987972;28;44399;-75
2024/01/18 00:26:22;;;;;;;1.50;1.50;;;15.90;65.90;;;;;;4990506;28;43366;-72
2024/01/18 00:28:50;;;;;;;1.80;1.70;;;15.90;66.00;;;;;;4989406;28;44006;-74
2024/01/18 00:31:18;;;;;;;1.30;1.30;;;15.90;66.00;;;;;;4990162;28;43376;-76
2024/01/18 00:33:46;;;;;;;1.70;1.70;;;15.90;65.70;;;;;;4994161;28;43337;-73
2024/01/18 00:36:14;;;;;;;1.50;1.50;;;16.00;65.50;;;;;;4995805;28;43591;-73
2024/01/18 00:38:49;;;;;;;1.63;1.57;;;16.00;65.40;;;;;;4989469;28;43844;-74
2024/01/18 00:41:17;;;;;;;1.43;1.43;;;16.00;65.50;;;;;;4993329;28;44729;-74
2024/01/18 00:43:47;;;;;;;1.60;1.60;;;16.00;65.60;;;;;;4989603;28;43444;-74
2024/01/18 00:46:15;;;;;;;1.40;1.40;;;16.00;65.80;;;;;;4995112;28;44078;-72
2024/01/18 00:48:43;;;;;;;1.43;1.43;;;15.90;65.70;;;;;;4991472;28;43626;-72
2024/01/18 00:51:11;;;;;;;1.50;1.50;;;15.90;65.60;;;;;;4987675;28;44713;-73
2024/01/18 00:53:41;;;;;;;1.37;1.37;;;16.00;65.80;;;;;;4987540;28;43549;-73
2024/01/18 00:56:11;;;;;;;1.50;1.50;;;15.90;65.70;;;;;;4989678;28;43404;-72
2024/01/18 00:58:40;;;;;;;1.60;1.60;;;15.90;65.80;;;;;;4992295;28;43621;-72
2024/01/18 01:01:10;;;;;;;1.53;1.53;;;15.90;65.90;;;;;;5004327;28;44742;-76
2024/01/18 01:03:38;;;;;;;1.60;1.60;;;15.90;65.90;;;;;;5000743;28;43660;-74
2024/01/18 01:06:10;;;;;;;1.57;1.57;;;15.90;66.00;;;;;;5008775;28;43356;-73
2024/01/18 01:08:38;;;;;;;1.40;1.40;;;15.90;65.90;;;;;;5006325;28;43854;-72
2024/01/18 01:11:08;;;;;;;1.47;1.47;;;15.90;65.90;;;;;;4998729;28;43485;-72
2024/01/18 01:13:36;;;;;;;1.50;1.50;;;15.90;65.90;;;;;;5018830;28;43766;-74
2024/01/18 01:16:05;;;;;;;1.40;1.40;;;15.90;66.00;;;;;;5000842;28;43417;-71
2024/01/18 01:18:35;;;;;;;1.27;1.27;;;15.90;66.00;;;;;;4995149;28;46073;-75
2024/01/18 01:21:03;;;;;;;1.47;1.47;;;15.90;66.00;;;;;;5007756;28;44876;-73
2024/01/18 01:23:32;;;;;;;1.40;1.40;;;15.90;66.20;;;;;;4994881;28;43484;-74
2024/01/18 01:26:01;;;;;;;1.40;1.40;;;15.90;66.00;;;;;;4992757;28;43409;-74
2024/01/18 01:28:29;;;;;;;1.40;1.40;;;15.90;66.00;;;;;;4990109;28;43941;-73
2024/01/18 01:30:57;;;;;;;1.43;1.43;;;15.90;66.00;;;;;;4993570;28;44716;-75
2024/01/18 01:33:25;;;;;;;1.20;1.20;;;15.80;66.00;;;;;;5006721;28;43465;-73
2024/01/18 01:35:55;;;;;;;1.10;1.10;;;15.90;66.00;;;;;;4994597;28;43771;-75
2024/01/18 01:38:23;;;;;;;1.30;1.30;;;15.90;66.10;;;;;;4994178;28;43933;-75
2024/01/18 01:40:51;;;;;;;1.30;1.30;;;15.80;66.10;;;;;;4993246;28;44710;-74
2024/01/18 01:43:19;;;;;;;1.13;1.13;;;15.90;66.20;;;;;;4988875;28;43433;-74
2024/01/18 01:45:48;;;;;;;1.30;1.30;;;15.90;65.90;;;;;;4990499;28;43455;-77
2024/01/18 01:48:16;;;;;;;1.20;1.20;;;16.00;65.70;;;;;;4990025;28;43961;-73
2024/01/18 01:50:44;;;;;;;1.30;1.30;;;16.10;65.40;;;;;;4989510;28;43408;-76
2024/01/18 01:53:14;;;;;;;1.33;1.33;;;16.10;65.40;;;;;;4990447;28;43439;-73
2024/01/18 01:55:42;;;;;;;1.40;1.30;;;16.10;65.40;;;;;;4989103;28;43456;-75
2024/01/18 01:58:10;;;;;;;1.20;1.20;;;16.00;65.50;;;;;;4989746;28;44796;-74
2024/01/18 02:00:38;;;;;;;1.30;1.30;;;16.00;65.70;;;;;;4989817;28;43483;-73
2024/01/18 02:03:07;;;;;;;1.30;1.30;;;16.00;65.50;;;;;;4989145;28;43435;-73
2024/01/18 02:05:35;;;;;;;1.10;1.10;;;16.00;65.60;;;;;;4992486;28;43452;-74
2024/01/18 02:08:03;;;;;;;1.30;1.30;;;16.00;65.70;;;;;;4983652;28;43910;-73
2024/01/18 02:10:32;;;;;;;1.37;1.37;;;15.90;65.60;;;;;;4991941;28;44336;-73
2024/01/18 02:13:00;;;;;;;1.17;1.17;;;16.00;65.80;;;;;;4990635;28;43591;-74
2024/01/18 02:15:29;;;;;;;1.30;1.30;;;15.90;65.80;;;;;;4990218;28;43964;-73
2024/01/18 02:17:57;;;;;;;1.10;1.10;;;15.90;65.90;;;;;;4986743;28;46002;-73
2024/01/18 02:20:25;;;;;;;0.93;0.93;;;15.90;65.80;;;;;;4987505;28;43521;-73
2024/01/18 02:22:53;;;;;;;1.10;1.10;;;15.90;65.80;;;;;;4993527;28;43946;-74
2024/01/18 02:25:24;;;;;;;1.10;1.10;;;15.90;65.80;;;;;;4992296;28;44128;-73
2024/01/18 02:27:55;;;;;;;1.10;1.10;;;15.90;65.80;;;;;;4989436;28;45640;-77
2024/01/18 02:30:23;;;;;;;1.13;1.13;;;15.90;66.60;;;;;;4988940;28;43308;-77
2024/01/18 02:32:52;;;;;;;1.00;1.00;;;15.90;65.90;;;;;;4988658;28;43550;-77
2024/01/18 02:35:20;;;;;;;1.00;1.00;;;15.90;66.10;;;;;;4988793;28;44124;-75
2024/01/18 02:37:48;;;;;;;1.13;1.13;;;15.90;66.00;;;;;;4989414;28;43621;-79
2024/01/18 02:40:16;;;;;;;1.20;1.20;;;16.00;65.80;;;;;;4989452;28;43982;-78
2024/01/18 02:42:46;;;;;;;1.10;1.10;;;16.00;65.40;;;;;;4989416;28;43426;-77
2024/01/18 02:45:14;;;;;;;1.00;1.00;;;16.10;65.30;;;;;;4989202;28;43634;-77
2024/01/18 02:47:42;;;;;;;1.00;1.00;;;16.10;65.40;;;;;;4988973;28;43923;-78
2024/01/18 02:50:11;;;;;;;1.10;1.10;;;16.00;65.40;;;;;;4989118;28;44119;-76
2024/01/18 02:52:39;;;;;;;1.10;1.10;;;16.00;65.60;;;;;;4994000;28;43443;-75
2024/01/18 02:55:08;;;;;;;0.90;0.90;;;16.00;65.40;;;;;;4989655;28;43595;-75
2024/01/18 02:57:36;;;;;;;1.00;1.00;;;16.00;65.50;;;;;;4995028;28;43612;-75
2024/01/18 03:00:06;;;;;;;1.10;1.10;;;16.00;65.60;;;;;;4988953;28;43457;-77
2024/01/18 03:02:35;;;;;;;1.10;1.10;;;16.00;65.60;;;;;;4988370;28;43527;-76
2024/01/18 03:05:02;;;;;;;1.23;1.23;;;15.90;65.60;;;;;;4988298;28;43413;-76
2024/01/18 03:07:30;;;;;;;1.10;1.10;;;15.90;65.60;;;;;;4995232;28;43609;-78
2024/01/18 03:09:58;;;;;;;1.00;1.00;;;15.90;65.80;;;;;;4990629;28;43930;-77
2024/01/18 03:12:26;;;;;;;0.90;0.90;;;15.90;65.70;;;;;;4987693;28;43540;-77
2024/01/18 03:14:54;;;;;;;0.90;0.90;;;15.90;65.70;;;;;;4988926;28;43348;-77
2024/01/18 03:17:23;;;;;;;0.90;0.90;;;15.90;65.80;;;;;;4989555;28;43609;-78
2024/01/18 03:19:52;;;;;;;1.20;1.20;;;15.90;65.70;;;;;;4990303;28;43358;-72
2024/01/18 03:22:20;;;;;;;1.00;1.00;;;15.90;65.80;;;;;;4989425;28;43360;-74
2024/01/18 03:24:50;;;;;;;1.00;1.00;;;15.90;65.90;;;;;;4990330;28;43501;-73
2024/01/18 03:27:19;;;;;;;1.00;1.00;;;15.80;66.00;;;;;;4990103;28;43688;-72
2024/01/18 03:29:47;;;;;;;0.90;0.90;;;15.90;66.20;;;;;;4990578;28;43593;-73
2024/01/18 03:32:15;;;;;;;1.00;1.00;;;15.90;65.90;;;;;;4987830;28;43417;-72
2024/01/18 03:34:45;;;;;;;1.10;1.10;;;16.00;65.60;;;;;;4988319;28;43444;-72
2024/01/18 03:37:13;;;;;;;1.00;1.00;;;16.00;65.50;;;;;;4989693;28;43803;-73
2024/01/18 03:39:41;;;;;;;0.90;0.90;;;16.00;65.70;;;;;;4987616;28;43420;-78
2024/01/18 03:42:09;;;;;;;0.90;0.90;;;16.00;65.70;;;;;;4988585;28;43558;-78
2024/01/18 03:44:37;;;;;;;0.80;0.80;;;15.90;65.70;;;;;;4988590;28;43598;-77
2024/01/18 03:47:05;;;;;;;0.93;0.93;;;15.90;65.80;;;;;;4989744;28;44163;-78
2024/01/18 03:49:33;;;;;;;0.97;0.97;;;15.90;65.60;;;;;;4988359;28;43764;-78
2024/01/18 03:52:03;;;;;;;0.90;0.90;;;15.90;65.70;;;;;;4987164;28;43674;-76
2024/01/18 03:54:31;;;;;;;0.80;0.80;;;15.90;65.70;;;;;;4988890;28;43449;-76
2024/01/18 03:56:59;;;;;;;0.80;0.80;;;15.90;65.80;;;;;;4987726;28;44280;-77
2024/01/18 03:59:27;;;;;;;0.80;0.80;;;15.90;66.10;;;;;;4988060;28;43452;-78
2024/01/18 04:01:57;;;;;;;1.00;1.00;;;15.90;65.90;;;;;;4990251;28;43993;-77
2024/01/18 04:04:25;;;;;;;0.77;0.77;;;15.90;65.90;;;;;;4990237;28;43987;-77
2024/01/18 04:06:53;;;;;;;0.80;0.80;;;15.90;65.80;;;;;;4988132;28;45503;-76
2024/01/18 04:09:25;;;;;;;0.90;0.90;;;15.90;65.80;;;;;;4989181;28;44311;-78
2024/01/18 04:11:54;;;;;;;0.80;0.80;;;15.90;65.80;;;;;;5004650;28;43519;-79
2024/01/18 04:14:22;;;;;;;0.77;0.77;;;15.90;65.80;;;;;;4986915;28;43465;-77
2024/01/18 04:16:50;;;;;;;0.90;0.90;;;15.90;65.80;;;;;;4986617;28;44244;-77
2024/01/18 04:19:18;;;;;;;1.00;1.00;;;15.90;65.80;;;;;;4987388;28;43521;-78
2024/01/18 04:21:46;;;;;;;0.80;0.80;;;15.90;65.90;;;;;;4987910;28;43990;-79
2024/01/18 04:24:14;;;;;;;0.90;0.90;;;15.90;65.90;;;;;;4988481;28;43541;-77
2024/01/18 04:26:47;;;;;;;1.10;1.10;;;16.00;65.60;;;;;;4988431;28;44449;-77
2024/01/18 04:29:15;;;;;;;0.87;0.87;;;16.20;65.30;;;;;;4986167;28;44722;-73
2024/01/18 04:31:43;;;;;;;0.70;0.70;;;16.20;65.00;;;;;;4987284;28;43447;-75
2024/01/18 04:34:11;;;;;;;0.80;0.80;;;16.20;64.90;;;;;;4985647;28;43683;-73
2024/01/18 04:36:39;;;;;;;0.90;0.90;;;16.20;65.00;;;;;;4989819;28;45979;-73
2024/01/18 04:39:09;;;;;;;1.03;1.03;;;16.20;65.00;;;;;;4989257;28;45099;-74
2024/01/18 04:41:37;;;;;;;0.90;0.90;;;16.10;65.10;;;;;;5006521;28;43527;-75
2024/01/18 04:44:06;;;;;;;0.80;0.80;;;16.10;65.00;;;;;;5008561;28;43930;-74
2024/01/18 04:46:34;;;;;;;0.70;0.70;;;16.20;65.20;;;;;;4990471;28;45692;-75
2024/01/18 04:49:03;;;;;;;0.80;0.80;;;16.10;65.10;;;;;;4998520;28;45191;-73
2024/01/18 04:51:31;;;;;;;0.90;0.90;;;16.10;65.20;;;;;;4993033;28;43440;-73
2024/01/18 04:53:59;;;;;;;1.00;1.00;;;16.10;65.30;;;;;;4994518;28;43404;-72
2024/01/18 04:56:27;;;;;;;1.10;1.10;;;16.10;65.40;;;;;;5007288;28;43610;-73
2024/01/18 04:58:56;;;;;;;1.10;1.10;;;16.00;65.30;;;;;;5017097;28;43408;-72
2024/01/18 05:01:25;;;;;;;1.10;1.10;;;16.10;65.40;;;;;;5057330;22;43767;-71
2024/01/18 05:03:53;;;;;;;2.33;1.90;;;16.00;65.40;;;;;;5033612;28;43931;-71
2024/01/18 05:06:21;;;;;;;1.83;1.73;;;16.00;65.40;;;;;;5041878;28;44033;-71
2024/01/18 05:08:52;;;;;;;3.63;1.90;;;16.00;65.50;;;;;;5041235;28;44490;-71
2024/01/18 05:11:20;;;;;;;2.97;1.90;;;16.00;65.50;;;;;;5046525;28;43539;-71
2024/01/18 05:13:48;;;;;;;4.97;2.57;;;16.00;65.60;;;;;;5044242;28;43736;-71
2024/01/18 05:16:18;;;;;;;3.67;2.70;;;16.00;65.80;;;;;;5050729;28;43615;-71
2024/01/18 05:18:47;;;;;;;4.77;2.60;;;16.10;65.60;;;;;;5045337;28;43458;-71
2024/01/18 05:21:15;;;;;;;4.73;2.90;;;16.20;65.30;;;;;;5050427;28;43954;-71
2024/01/18 05:23:46;;;;;;;5.10;2.97;;;16.20;64.90;;;;;;5050739;28;43388;-71
2024/01/18 05:26:14;;;;;;;5.20;3.03;;;16.20;64.90;;;;;;5050266;28;43712;-71
2024/01/18 05:28:42;;;;;;;5.60;3.00;;;16.20;65.00;;;;;;5053994;28;43524;-71
2024/01/18 05:31:10;;;;;;;4.43;2.97;;;16.10;65.00;;;;;;5067623;28;43998;-71
2024/01/18 05:33:38;;;;;;;3.63;2.77;;;16.10;65.20;;;;;;5071380;28;43567;-70
2024/01/18 05:36:08;;;;;;;3.77;2.80;;;16.10;65.00;;;;;;5060439;28;43616;-70
2024/01/18 05:38:36;;;;;;;3.23;2.80;;;16.10;65.00;;;;;;5063965;28;43408;-70
2024/01/18 05:41:09;;;;;;;6.57;3.00;;;16.10;65.00;;;;;;5063218;28;43386;-70
2024/01/18 05:43:37;;;;;;;4.60;2.80;;;16.10;65.10;;;;;;5073263;28;43408;-70
2024/01/18 05:46:08;;;;;;;4.67;3.20;;;16.10;65.20;;;;;;5066151;28;43908;-71
2024/01/18 05:48:36;;;;;;;4.50;3.20;;;16.10;65.40;;;;;;5066897;28;43390;-71
2024/01/18 05:51:05;;;;;;;3.43;2.83;;;16.00;65.40;;;;;;5066408;28;43394;-71
2024/01/18 05:53:35;;;;;;;5.77;2.90;;;16.10;65.60;;;;;;5067116;28;43463;-71
2024/01/18 05:56:03;;;;;;;4.70;3.33;;;16.00;65.40;;;;;;5066275;28;43584;-71
2024/01/18 05:58:31;;;;;;;3.83;3.00;;;16.00;65.40;;;;;;5064796;28;44074;-71
2024/01/18 06:01:01;;;;;;;5.23;3.07;;;16.00;65.50;;;;;;5064977;28;43384;-71
2024/01/18 06:03:29;;;;;;;5.20;3.40;;;16.00;65.50;;;;;;5067107;28;43480;-71
2024/01/18 06:05:58;;;;;;;5.97;2.90;;;16.00;65.60;;;;;;5066643;28;43605;-71
2024/01/18 06:08:27;;;;;;;3.13;2.50;;;16.00;65.80;;;;;;5067046;28;43323;-71
2024/01/18 06:10:56;;;;;;;3.87;2.70;;;16.10;65.70;;;;;;5066794;28;43482;-71
2024/01/18 06:13:24;;;;;;;4.43;2.90;;;16.10;65.10;;;;;;5066588;28;43380;-71
2024/01/18 06:15:52;;;;;;;3.13;2.90;;;16.10;65.00;;;;;;5065887;28;43908;-70
2024/01/18 06:18:20;;;;;;;3.10;2.60;;;16.10;65.10;;;;;;5065597;28;43827;-71
2024/01/18 06:20:49;;;;;;;3.13;2.83;;;16.10;65.10;;;;;;5065293;28;43450;-71
2024/01/18 06:23:17;;;;;;;4.40;2.77;;;16.10;65.20;;;;;;5064816;28;43645;-70
2024/01/18 06:25:45;;;;;;;5.10;2.80;;;16.10;65.30;;;;;;5065765;28;43848;-71
2024/01/18 06:28:14;;;;;;;2.87;2.67;;;16.10;65.20;;;;;;5065121;28;43375;-70
2024/01/18 06:30:44;;;;;;;3.37;2.50;;;16.10;65.40;;;;;;5064925;28;43354;-71
2024/01/18 06:33:13;;;;;;;4.07;2.80;;;16.10;65.30;;;;;;5066023;28;43431;-71
2024/01/18 06:35:41;;;;;;;2.70;2.30;;;16.10;65.40;;;;;;5063803;28;45655;-71
2024/01/18 06:38:11;;;;;;;2.80;2.60;;;16.10;65.40;;;;;;5065275;28;44003;-71
2024/01/18 06:40:40;;;;;;;3.27;2.80;;;16.10;65.40;;;;;;5064944;28;43449;-70
2024/01/18 06:43:11;;;;;;;3.27;2.53;;;16.10;65.60;;;;;;5063484;28;43499;-71
2024/01/18 06:45:40;;;;;;;2.30;2.10;;;16.10;65.30;;;;;;5064871;28;43891;-70
2024/01/18 06:48:08;;;;;;;2.73;2.47;;;16.20;64.90;;;;;;5068841;28;44392;-70
2024/01/18 06:50:37;;;;;;;3.23;2.30;;;16.20;64.90;;;;;;5065076;28;43447;-70
2024/01/18 06:53:05;;;;;;;2.30;2.17;;;16.20;64.90;;;;;;5065803;28;43371;-70
2024/01/18 06:55:33;;;;;;;2.77;2.57;;;16.20;65.00;;;;;;5065856;28;43753;-70
2024/01/18 06:58:02;;;;;;;2.80;2.60;;;16.20;65.00;;;;;;5063012;28;44688;-70
2024/01/18 07:00:31;;;;;;;2.80;2.50;;;16.20;65.00;;;;;;5064397;28;43451;-70
2024/01/18 07:03:01;;;;;;;2.23;2.03;;;16.20;64.80;;;;;;5064697;28;43560;-70
2024/01/18 07:05:29;;;;;;;2.90;2.27;;;16.20;65.00;;;;;;5064421;28;44060;-71
2024/01/18 07:07:57;;;;;;;2.40;2.20;;;16.20;65.00;;;;;;5065236;28;43460;-71
2024/01/18 07:10:28;;;;;;;2.70;2.50;;;16.10;64.90;;;;;;5067545;28;43431;-71
2024/01/18 07:12:56;;;;;;;2.30;2.20;;;16.10;65.00;;;;;;5064654;28;44500;-70
2024/01/18 07:15:24;;;;;;;2.40;2.20;;;16.10;65.10;;;;;;5063692;28;44672;-71
2024/01/18 07:17:52;;;;;;;2.70;2.50;;;16.10;65.40;;;;;;5057588;28;43455;-71
2024/01/18 07:20:25;;;;;;;2.90;2.60;;;16.20;65.40;;;;;;5058650;28;43394;-71
2024/01/18 07:22:56;;;;;;;2.77;2.57;;;16.20;64.80;;;;;;5060574;28;43414;-71
2024/01/18 07:25:24;;;;;;;2.17;2.07;;;16.20;64.80;;;;;;5071698;28;45673;-71
2024/01/18 07:27:52;;;;;;;2.33;2.20;;;16.20;64.90;;;;;;5063607;28;43363;-71
2024/01/18 07:30:21;;;;;;;3.27;2.40;;;16.20;65.00;;;;;;5064362;28;43968;-71
2024/01/18 07:32:50;;;;;;;2.70;2.50;;;16.10;64.90;;;;;;5064394;28;43447;-71
2024/01/18 07:35:18;;;;;;;2.40;2.10;;;16.20;65.20;;;;;;5068703;28;44600;-71
2024/01/18 07:37:47;;;;;;;2.60;2.40;;;16.10;64.90;;;;;;5059595;28;44302;-71
2024/01/18 07:40:16;;;;;;;2.57;2.37;;;16.20;65.10;;;;;;5070212;28;43939;-71
2024/01/18 07:42:44;;;;;;;2.37;2.10;;;16.10;65.00;;;;;;5065092;28;43395;-71
2024/01/18 07:45:14;;;;;;;2.20;2.10;;;16.10;65.10;;;;;;5061946;28;45963;-71
2024/01/18 07:47:44;;;;;;;2.10;2.00;;;16.10;65.10;;;;;;5064557;28;43447;-71
2024/01/18 07:50:12;;;;;;;2.30;2.20;;;16.10;65.10;;;;;;5064419;28;43387;-72
2024/01/18 07:53:01;;;;;;;2.37;2.27;;;16.10;65.10;;;;;;5064350;28;43830;-71
2024/01/18 07:55:29;;;;;;;2.10;2.00;;;16.10;65.10;;;;;;5064119;28;43845;-72
2024/01/18 07:57:57;;;;;;;2.27;2.17;;;16.10;65.10;;;;;;5065529;28;44446;-71
2024/01/18 08:00:25;;;;;;;2.10;2.00;;;16.10;65.00;;;;;;5064753;28;43395;-71
2024/01/18 08:02:54;;;;;;;2.50;2.40;;;16.10;65.10;;;;;;5062965;28;43463;-71
2024/01/18 08:05:24;;;;;;;2.37;2.27;;;16.10;65.00;;;;;;5063318;28;44943;-71
2024/01/18 08:07:52;;;;;;;2.33;2.23;;;16.10;65.10;;;;;;5064278;28;43438;-71
2024/01/18 08:10:21;;;;;;;2.37;2.17;;;16.10;65.40;;;;;;5066140;28;43383;-71
2024/01/18 08:12:49;;;;;;;2.20;2.10;;;16.20;65.40;;;;;;5063790;28;43893;-70
2024/01/18 08:15:18;;;;;;;2.00;1.90;;;16.20;65.00;;;;;;5062415;28;43872;-71
2024/01/18 08:17:46;;;;;;;2.40;2.30;;;16.30;64.50;;;;;;5063172;28;43452;-71
2024/01/18 08:20:14;;;;;;;1.90;1.80;;;16.30;64.40;;;;;;5063948;28;43363;-71
2024/01/18 08:22:43;;;;;;;2.07;1.97;;;16.30;64.50;;;;;;5063408;28;43572;-71
2024/01/18 08:25:11;;;;;;;2.10;2.00;;;16.20;64.60;;;;;;5061495;28;45923;-71
2024/01/18 08:27:41;;;;;;;2.00;1.90;;;16.20;64.80;;;;;;5063761;28;43371;-71
2024/01/18 08:30:10;;;;;;;1.80;1.70;;;16.20;64.50;;;;;;5063962;28;43440;-72
2024/01/18 08:32:38;;;;;;;1.93;1.90;;;16.20;64.70;;;;;;5063295;28;43864;-71
2024/01/18 08:35:07;;;;;;;2.00;1.90;;;16.20;64.80;;;;;;5062730;28;43612;-71
2024/01/18 08:37:37;;;;;;;1.90;1.80;;;16.20;64.80;;;;;;5056970;28;43415;-71
2024/01/18 08:40:06;;;;;;;2.20;2.10;;;16.20;64.90;;;;;;5057193;28;43380;-71
2024/01/18 08:42:35;;;;;;;2.40;2.27;;;16.20;65.00;;;;;;5060121;28;43439;-71
2024/01/18 08:45:05;;;;;;;1.83;1.73;;;16.10;65.00;;;;;;5063319;28;43871;-71
2024/01/18 08:47:34;;;;;;;1.80;1.70;;;16.10;64.80;;;;;;5064108;28;43563;-71
2024/01/18 08:50:02;;;;;;;2.23;2.13;;;16.10;65.00;;;;;;5063758;28;43426;-71
2024/01/18 08:52:30;;;;;;;1.73;1.63;;;16.10;65.70;;;;;;5062863;28;43441;-71
2024/01/18 08:54:58;;;;;;;1.63;1.63;;;16.10;65.00;;;;;;5066398;28;45719;-71
2024/01/18 08:57:28;;;;;;;1.80;1.70;;;16.10;65.10;;;;;;5064212;28;43434;-72
2024/01/18 08:59:57;;;;;;;1.93;1.83;;;16.10;65.10;;;;;;5069718;28;43423;-71
2024/01/18 09:02:26;;;;;;;1.60;1.60;;;16.10;65.30;;;;;;5073098;28;43384;-70
2024/01/18 09:04:54;;;;;;;1.97;1.87;;;16.10;65.20;;;;;;5072623;28;43608;-70
2024/01/18 09:07:23;;;;;;;1.80;1.70;;;16.20;65.00;;;;;;5072363;28;43441;-71
2024/01/18 09:09:51;;;;;;;1.60;1.60;;;16.20;64.40;;;;;;5074520;27;43434;-71
2024/01/18 09:12:19;;;;;;;1.70;1.70;;;16.20;64.40;;;;;;5072818;28;43438;-70
2024/01/18 09:14:48;;;;;;;1.77;1.77;;;16.20;64.60;;;;;;5072414;28;43612;-71
2024/01/18 09:17:16;;;;;;;1.90;1.80;;;16.20;64.60;;;;;;5072589;28;43358;-71
2024/01/18 09:19:45;;;;;;;1.47;1.47;;;16.20;65.00;;;;;;5072166;28;43403;-70
2024/01/18 09:22:14;;;;;;;1.60;1.60;;;16.20;65.40;;;;;;5075935;28;43500;-71
2024/01/18 09:24:43;;;;;;;2.00;1.90;;;16.20;64.80;;;;;;5075901;28;43585;-71
2024/01/18 09:27:11;;;;;;;1.90;1.80;;;16.20;64.80;;;;;;5075810;28;43415;-70
2024/01/18 09:29:39;;;;;;;1.87;1.77;;;16.20;64.90;;;;;;5075956;28;43379;-71
2024/01/18 09:32:07;;;;;;;1.60;1.60;;;16.10;64.80;;;;;;5071683;28;43436;-70
2024/01/18 09:34:35;;;;;;;1.90;1.80;;;16.10;64.90;;;;;;5075328;28;43609;-70
2024/01/18 09:37:05;;;;;;;1.97;1.87;;;16.10;65.10;;;;;;5075319;28;43466;-71
2024/01/18 09:39:33;;;;;;;1.53;1.50;;;16.10;65.20;;;;;;5075982;28;43543;-71
2024/01/18 09:42:03;;;;;;;1.47;1.47;;;16.20;65.00;;;;;;5076286;28;43353;-70
2024/01/18 09:44:31;;;;;;;1.60;1.60;;;16.20;64.50;;;;;;5072108;28;43915;-70
2024/01/18 09:47:01;;;;;;;1.93;1.83;;;16.30;64.50;;;;;;5075617;28;43373;-71
2024/01/18 09:49:30;;;;;;;1.50;1.50;;;16.20;64.60;;;;;;5075337;28;43449;-71
2024/01/18 09:51:59;;;;;;;1.50;1.50;;;16.20;64.60;;;;;;5075269;28;43404;-69
2024/01/18 09:54:28;;;;;;;1.50;1.50;;;16.20;64.80;;;;;;5074287;28;45234;-70
2024/01/18 09:56:58;;;;;;;1.50;1.50;;;16.20;64.80;;;;;;5075186;28;43462;-70
2024/01/18 09:59:26;;;;;;;1.60;1.60;;;16.20;64.70;;;;;;5074828;28;43411;-69
2024/01/18 10:01:55;;;;;;;1.70;1.70;;;16.20;64.90;;;;;;5075766;28;43438;-71
2024/01/18 10:04:27;;;;;;;1.70;1.70;;;16.10;64.80;;;;;;5075255;28;43729;-71
2024/01/18 10:06:55;;;;;;;1.77;1.77;;;16.20;65.00;;;;;;5075298;28;43410;-70
2024/01/18 10:09:28;;;;;;;1.40;1.40;;;16.10;65.00;;;;;;5065185;28;43424;-71
2024/01/18 10:11:56;;;;;;;1.53;1.53;;;16.10;65.00;;;;;;5050326;28;43395;-71
2024/01/18 10:14:39;;;;;;;1.70;1.60;;;16.10;65.30;;;;;;5050100;28;43586;-72
2024/01/18 10:17:08;;;;;;;1.60;1.60;;;16.20;65.20;;;;;;5048016;28;44429;-71
2024/01/18 10:19:36;;;;;;;1.60;1.60;;;16.20;64.70;;;;;;5049684;28;43368;-71
2024/01/18 10:22:05;;;;;;;1.30;1.30;;;16.20;64.80;;;;;;5060376;28;43585;-72
2024/01/18 10:24:39;;;;;;;1.60;1.60;;;16.20;64.80;;;;;;5050000;28;43961;-72
2024/01/18 10:27:07;;;;;;;1.50;1.50;;;16.20;64.90;;;;;;5045379;28;43463;-71
2024/01/18 10:29:38;;;;;;;1.53;1.50;;;16.10;64.80;;;;;;5049694;28;43956;-72
2024/01/18 10:32:07;;;;;;;1.40;1.40;;;16.20;65.00;;;;;;5047551;28;43469;-72
2024/01/18 10:34:36;;;;;;;1.37;1.37;;;16.20;65.00;;;;;;5049089;28;44143;-72
2024/01/18 10:37:05;;;;;;;1.47;1.47;;;16.20;65.00;;;;;;5049249;28;43827;-71
2024/01/18 10:39:40;;;;;;;1.53;1.53;;;16.10;64.90;;;;;;5049582;28;43423;-71
2024/01/18 10:42:08;;;;;;;1.30;1.30;;;16.10;65.00;;;;;;5049541;28;43890;-71
2024/01/18 10:44:40;;;;;;;1.30;1.30;;;16.10;65.00;;;;;;5049669;28;43968;-72
2024/01/18 10:47:10;;;;;;;1.50;1.50;;;16.10;65.00;;;;;;5049365;28;43460;-71
2024/01/18 10:49:38;;;;;;;1.53;1.53;;;16.10;64.90;;;;;;5049353;28;43387;-72
2024/01/18 10:52:07;;;;;;;1.57;1.57;;;16.10;65.10;;;;;;5050248;28;43401;-71
2024/01/18 10:54:35;;;;;;;1.50;1.50;;;16.10;65.10;;;;;;5049578;28;43632;-71
2024/01/18 10:57:08;;;;;;;1.50;1.50;;;16.10;65.10;;;;;;5054830;28;44910;-71
2024/01/18 10:59:36;;;;;;;1.43;1.43;;;16.10;65.10;;;;;;5049024;28;43406;-72
2024/01/18 11:02:04;;;;;;;1.60;1.60;;;16.10;65.10;;;;;;5049896;28;43406;-72
2024/01/18 11:04:32;;;;;;;1.60;1.60;;;16.10;65.10;;;;;;5049535;28;43619;-72
2024/01/18 11:07:01;;;;;;;1.70;1.70;;;16.10;65.30;;;;;;5049428;28;43418;-72
2024/01/18 11:09:30;;;;;;;1.50;1.50;;;16.20;65.20;;;;;;5051388;28;43448;-72
2024/01/18 11:11:58;;;;;;;1.70;1.70;;;16.30;64.90;;;;;;5049365;28;43475;-72
2024/01/18 11:14:28;;;;;;;1.67;1.67;;;16.30;64.50;;;;;;5048816;28;44379;-71
2024/01/18 11:16:59;;;;;;;1.40;1.40;;;16.30;64.30;;;;;;5048728;28;43469;-72
2024/01/18 11:19:39;;;;;;;1.60;1.60;;;16.30;64.50;;;;;;5059945;28;43475;-71
2024/01/18 11:22:09;;;;;;;1.70;1.70;;;16.30;64.50;;;;;;5069462;28;43404;-71
2024/01/18 11:24:38;;;;;;;1.53;1.53;;;16.30;64.60;;;;;;5073767;28;45218;-71
2024/01/18 11:27:19;;;;;;;1.43;1.43;;;16.30;64.50;;;;;;5073652;28;43391;-71
2024/01/18 11:29:49;;;;;;;1.60;1.60;;;16.20;64.60;;;;;;5074048;28;43369;-71
2024/01/18 11:32:19;;;;;;;1.60;1.60;;;16.20;64.70;;;;;;5074340;28;43395;-71
2024/01/18 11:34:50;;;;;;;1.60;1.60;;;16.20;64.80;;;;;;5072748;28;45703;-71
2024/01/18 11:37:18;;;;;;;1.60;1.60;;;16.20;65.00;;;;;;5072788;28;44400;-71
2024/01/18 11:39:56;;;;;;;1.70;1.70;;;16.20;65.00;;;;;;5073813;28;43833;-70
2024/01/18 11:42:25;;;;;;;1.77;1.67;;;16.20;64.90;;;;;;5074001;28;43384;-70
2024/01/18 11:45:00;;;;;;;1.60;1.60;;;16.20;65.00;;;;;;5073206;28;43912;-70
2024/01/18 11:47:29;;;;;;;1.83;1.80;;;16.20;65.00;;;;;;5070739;28;43450;-70
2024/01/18 11:49:57;;;;;;;1.63;1.63;;;16.20;65.10;;;;;;5073877;28;43429;-71
2024/01/18 11:52:25;;;;;;;1.60;1.60;;;16.10;65.00;;;;;;5074356;28;43422;-71
2024/01/18 11:54:56;;;;;;;2.00;2.00;;;16.10;65.10;;;;;;5072137;28;45834;-70
2024/01/18 11:57:24;;;;;;;1.90;1.90;;;16.10;65.10;;;;;;5073347;28;43359;-70
2024/01/18 11:59:53;;;;;;;1.70;1.70;;;16.20;65.30;;;;;;5072802;28;43419;-71
2024/01/18 12:02:22;;;;;;;1.60;1.60;;;16.20;65.10;;;;;;5073822;28;43380;-71
2024/01/18 12:04:50;;;;;;;1.60;1.60;;;16.30;64.70;;;;;;5073605;28;43694;-70
2024/01/18 12:07:20;;;;;;;1.70;1.70;;;16.30;64.50;;;;;;5068185;28;43847;-71
2024/01/18 12:09:49;;;;;;;1.90;1.90;;;16.30;64.60;;;;;;5075062;28;43379;-71
2024/01/18 12:12:17;;;;;;;1.83;1.83;;;16.30;64.80;;;;;;5073168;28;43405;-70
2024/01/18 12:14:47;;;;;;;1.70;1.70;;;16.20;64.70;;;;;;5066151;28;43703;-70
2024/01/18 12:17:15;;;;;;;1.60;1.60;;;16.30;64.80;;;;;;5073430;28;43438;-70
2024/01/18 12:19:45;;;;;;;1.87;1.87;;;16.20;64.80;;;;;;5073030;28;43489;-71
2024/01/18 12:22:14;;;;;;;1.80;1.70;;;16.20;64.90;;;;;;5073423;28;43981;-70
2024/01/18 12:24:42;;;;;;;1.80;1.80;;;16.20;64.90;;;;;;5073124;28;43966;-71
2024/01/18 12:27:10;;;;;;;1.80;1.80;;;16.20;65.00;;;;;;5073069;28;43506;-70
2024/01/18 12:29:39;;;;;;;1.60;1.60;;;16.20;65.00;;;;;;5059321;28;43411;-72
2024/01/18 12:32:08;;;;;;;1.73;1.73;;;16.20;65.10;;;;;;5046031;28;43499;-72
2024/01/18 12:34:36;;;;;;;1.90;1.90;;;16.10;64.80;;;;;;5047076;28;43619;-72
2024/01/18 12:37:06;;;;;;;1.80;1.80;;;16.20;65.10;;;;;;5043560;28;43317;-72
2024/01/18 12:39:34;;;;;;;1.80;1.80;;;16.20;65.10;;;;;;5046948;28;43445;-73
2024/01/18 12:42:03;;;;;;;1.80;1.80;;;16.20;65.10;;;;;;5047433;28;43376;-72
2024/01/18 12:44:31;;;;;;;1.90;1.90;;;16.10;65.10;;;;;;5046813;28;43752;-73
2024/01/18 12:46:59;;;;;;;2.00;2.00;;;16.10;65.10;;;;;;5046986;28;43478;-72
2024/01/18 12:49:32;;;;;;;1.93;1.93;;;16.10;65.10;;;;;;5047410;28;43367;-72
2024/01/18 12:52:01;;;;;;;1.80;1.80;;;16.20;65.30;;;;;;5047536;28;43368;-72
2024/01/18 12:54:31;;;;;;;2.00;2.00;;;16.20;65.20;;;;;;5045324;28;45416;-73
2024/01/18 12:57:00;;;;;;;1.90;1.90;;;16.30;64.80;;;;;;5050163;28;43917;-72